createdAt,value
2023-04-12T00:01:43.470Z,98771.84
2023-04-12T00:04:29.298Z,98773.56
2023-04-12T00:07:14.663Z,98758.16
2023-04-12T00:10:00.561Z,98759.00
2023-04-12T00:12:46.985Z,98769.28
2023-04-12T00:15:32.464Z,98764.13
2023-04-12T00:18:17.992Z,98772.72
2023-04-12T00:21:03.507Z,98771.84
2023-04-12T00:23:49.551Z,98763.28
2023-04-12T00:26:35.192Z,98769.28
2023-04-12T00:29:21.384Z,98762.44
2023-04-12T00:32:07.028Z,98767.56
2023-04-12T00:34:52.351Z,98765.00
2023-04-12T00:37:39.196Z,98764.13
2023-04-12T00:40:26.728Z,98758.97
2023-04-12T00:43:20.736Z,98760.69
2023-04-12T00:46:06.794Z,98740.09
2023-04-12T00:48:52.275Z,98740.09
2023-04-12T00:51:38.035Z,98741.84
2023-04-12T00:54:23.665Z,98734.13
2023-04-12T00:57:10.324Z,98722.13
2023-04-12T00:59:55.889Z,98730.69
2023-04-12T01:02:47.154Z,98715.25
2023-04-12T01:05:36.342Z,98718.69
2023-04-12T01:08:39.315Z,98721.25
2023-04-12T01:11:30.788Z,98720.41
2023-04-12T01:14:35.599Z,98720.41
2023-04-12T01:17:27.669Z,98682.69
2023-04-12T01:20:21.734Z,98704.97
2023-04-12T01:23:40.144Z,98694.66
2023-04-12T01:26:46.360Z,98699.81
2023-04-12T01:29:32.323Z,98692.97
2023-04-12T01:32:20.160Z,98694.69
2023-04-12T01:35:08.975Z,98696.41
2023-04-12T01:37:54.579Z,98687.84
2023-04-12T01:40:42.765Z,98689.53
2023-04-12T01:43:28.167Z,98680.97
2023-04-12T01:46:17.237Z,98668.97
2023-04-12T01:49:03.090Z,98656.97
2023-04-12T01:51:55.852Z,98657.78
2023-04-12T01:54:43.109Z,98656.94
2023-04-12T01:57:29.591Z,98651.78
2023-04-12T02:00:17.019Z,98656.94
2023-04-12T02:03:03.874Z,98654.38
2023-04-12T02:05:52.260Z,98641.53
2023-04-12T02:08:39.382Z,98648.38
2023-04-12T02:11:27.188Z,98640.66
2023-04-12T02:14:12.730Z,98633.81
2023-04-12T02:16:58.789Z,98619.28
2023-04-12T02:19:45.674Z,98608.94
2023-04-12T02:22:31.356Z,98607.25
2023-04-12T02:25:18.537Z,98615.84
2023-04-12T02:28:03.817Z,98609.84
2023-04-12T02:30:54.181Z,98608.97
2023-04-12T02:33:42.670Z,98601.25
2023-04-12T02:36:29.801Z,98592.69
2023-04-12T02:39:18.897Z,98585.84
2023-04-12T02:42:07.332Z,98570.41
2023-04-12T02:44:53.042Z,98561.84
2023-04-12T02:47:38.632Z,98561.84
2023-04-12T02:50:24.692Z,98550.72
2023-04-12T02:53:18.101Z,98561.00
2023-04-12T02:56:09.708Z,98537.88
2023-04-12T02:58:55.443Z,98536.13
2023-04-12T03:01:54.089Z,98515.59
2023-04-12T03:04:51.223Z,98505.31
2023-04-12T03:07:42.119Z,98500.19
2023-04-12T03:10:28.782Z,98499.31
2023-04-12T03:13:21.599Z,98490.75
2023-04-12T03:16:23.664Z,98476.16
2023-04-12T03:19:14.306Z,98472.75
2023-04-12T03:22:02.508Z,98476.19
2023-04-12T03:24:49.809Z,98463.34
2023-04-12T03:27:38.308Z,98463.34
2023-04-12T03:30:23.616Z,98445.38
2023-04-12T03:33:13.054Z,98462.47
2023-04-12T03:35:58.424Z,98450.50
2023-04-12T03:38:45.432Z,98449.59
2023-04-12T03:41:31.413Z,98460.75
2023-04-12T03:44:21.515Z,98458.19
2023-04-12T03:47:07.712Z,98443.59
2023-04-12T03:50:10.137Z,98435.88
2023-04-12T03:52:57.431Z,98443.59
2023-04-12T03:55:48.988Z,98422.22
2023-04-12T03:58:36.004Z,98417.91
2023-04-12T04:01:23.845Z,98414.50
2023-04-12T04:04:11.291Z,98402.53
2023-04-12T04:06:56.990Z,98398.25
2023-04-12T04:09:43.423Z,98388.84
2023-04-12T04:12:30.433Z,98394.81
2023-04-12T04:15:17.315Z,98384.53
2023-04-12T04:18:03.500Z,98376.00
2023-04-12T04:20:49.011Z,98353.72
2023-04-12T04:23:40.383Z,98346.84
2023-04-12T04:26:33.750Z,98337.38
2023-04-12T04:29:45.687Z,98325.34
2023-04-12T04:32:34.096Z,98305.66
2023-04-12T04:35:20.711Z,98288.56
2023-04-12T04:38:20.749Z,98295.47
2023-04-12T04:41:06.722Z,98278.31
2023-04-12T04:44:25.869Z,98261.16
2023-04-12T04:47:13.952Z,98259.41
2023-04-12T04:50:00.287Z,98255.06
2023-04-12T04:52:48.381Z,98224.13
2023-04-12T04:55:33.822Z,98218.94
2023-04-12T04:58:19.695Z,98203.44
2023-04-12T05:01:07.307Z,98185.44
2023-04-12T05:03:55.616Z,98178.63
2023-04-12T05:06:44.390Z,98180.38
2023-04-12T05:09:32.069Z,98179.53
2023-04-12T05:12:18.489Z,98162.34
2023-04-12T05:15:11.915Z,98151.94
2023-04-12T05:17:58.733Z,98136.47
2023-04-12T05:20:44.489Z,98124.38
2023-04-12T05:23:29.725Z,98124.38
2023-04-12T05:26:15.050Z,98110.66
2023-04-12T05:29:06.275Z,98113.22
2023-04-12T05:31:52.078Z,98109.88
2023-04-12T05:34:40.599Z,98097.75
2023-04-12T05:37:28.680Z,98089.22
2023-04-12T05:40:14.481Z,98093.50
2023-04-12T05:43:00.857Z,98089.25
2023-04-12T05:45:51.322Z,98067.75
2023-04-12T05:48:39.809Z,98072.00
2023-04-12T05:51:37.749Z,98067.59
2023-04-12T05:54:32.237Z,98040.81
2023-04-12T05:57:17.815Z,98025.22
2023-04-12T06:00:18.999Z,98006.88
2023-04-12T06:03:05.523Z,97994.56
2023-04-12T06:05:52.739Z,97971.19
2023-04-12T06:08:38.693Z,97957.34
2023-04-12T06:11:26.067Z,97946.13
2023-04-12T06:14:12.188Z,97932.47
2023-04-12T06:16:58.028Z,97920.47
2023-04-12T06:19:43.311Z,97917.94
2023-04-12T06:22:28.740Z,97908.66
2023-04-12T06:25:13.992Z,97905.28
2023-04-12T06:27:59.437Z,97889.84
2023-04-12T06:30:45.933Z,97885.53
2023-04-12T06:33:31.518Z,97886.25
2023-04-12T06:36:17.417Z,97871.44
2023-04-12T06:39:03.780Z,97865.25
2023-04-12T06:41:50.477Z,97857.41
2023-04-12T06:44:38.736Z,97860.78
2023-04-12T06:47:25.418Z,97859.16
2023-04-12T06:50:11.330Z,97861.75
2023-04-12T06:52:56.692Z,97849.75
2023-04-12T06:55:42.432Z,97850.63
2023-04-12T06:58:27.667Z,97845.44
2023-04-12T07:01:15.872Z,97830.84
2023-04-12T07:04:01.689Z,97827.53
2023-04-12T07:06:47.433Z,97810.34
2023-04-12T07:09:33.129Z,97801.78
2023-04-12T07:12:18.936Z,97797.53
2023-04-12T07:15:05.118Z,97789.84
2023-04-12T07:17:52.065Z,97772.63
2023-04-12T07:20:37.623Z,97776.84
2023-04-12T07:23:23.929Z,97768.97
2023-04-12T07:26:09.536Z,97761.94
2023-04-12T07:28:54.971Z,97750.66
2023-04-12T07:31:40.946Z,97748.78
2023-04-12T07:34:27.692Z,97739.94
2023-04-12T07:37:13.324Z,97743.16
2023-04-12T07:39:59.152Z,97737.03
2023-04-12T07:42:44.846Z,97738.63
2023-04-12T07:45:30.177Z,97739.38
2023-04-12T07:48:16.580Z,97732.50
2023-04-12T07:51:02.225Z,97733.31
2023-04-12T07:53:48.770Z,97729.72
2023-04-12T07:56:35.485Z,97725.38
2023-04-12T07:59:20.984Z,97730.44
2023-04-12T08:02:07.230Z,97712.38
2023-04-12T08:04:55.708Z,97714.13
2023-04-12T08:07:41.088Z,97706.34
2023-04-12T08:10:26.504Z,97699.53
2023-04-12T08:13:11.845Z,97696.88
2023-04-12T08:15:57.138Z,97694.25
2023-04-12T08:18:42.656Z,97698.59
2023-04-12T08:21:27.954Z,97698.47
2023-04-12T08:24:13.290Z,97700.16
2023-04-12T08:26:58.639Z,97691.31
2023-04-12T08:29:45.055Z,97684.34
2023-04-12T08:32:30.972Z,97688.63
2023-04-12T08:35:16.697Z,97694.41
2023-04-12T08:38:08.111Z,97708.47
2023-04-12T08:40:53.525Z,97713.69
2023-04-12T08:43:43.255Z,97719.44
2023-04-12T08:46:30.245Z,97725.31
2023-04-12T08:49:16.443Z,97730.25
2023-04-12T08:52:07.758Z,97737.56
2023-04-12T08:54:53.297Z,97730.69
2023-04-12T08:57:41.746Z,97739.47
2023-04-12T09:00:27.645Z,97742.28
2023-04-12T09:03:13.185Z,97750.94
2023-04-12T09:06:05.490Z,97743.19
2023-04-12T09:08:58.070Z,97745.66
2023-04-12T09:11:43.964Z,97749.53
2023-04-12T09:14:29.650Z,97752.91
2023-04-12T09:17:23.286Z,97758.09
2023-04-12T09:20:18.153Z,97752.69
2023-04-12T09:23:26.527Z,97748.97
2023-04-12T09:26:28.699Z,97756.34
2023-04-12T09:29:25.156Z,97754.59
2023-04-12T09:32:10.914Z,97752.59
2023-04-12T09:34:58.282Z,97747.47
2023-04-12T09:37:43.841Z,97749.56
2023-04-12T09:40:34.469Z,97752.28
2023-04-12T09:43:20.220Z,97752.25
2023-04-12T09:46:11.917Z,97760.63
2023-04-12T09:49:03.390Z,97763.16
2023-04-12T09:51:52.735Z,97765.16
2023-04-12T09:54:39.655Z,97773.41
2023-04-12T09:57:26.680Z,97768.34
2023-04-12T10:00:20.400Z,97768.16
2023-04-12T10:03:07.357Z,97767.25
2023-04-12T10:05:52.981Z,97772.81
2023-04-12T10:08:39.240Z,97775.16
2023-04-12T10:11:27.921Z,97769.44
2023-04-12T10:14:16.275Z,97769.97
2023-04-12T10:17:05.605Z,97778.97
2023-04-12T10:19:52.536Z,97783.44
2023-04-12T10:22:49.221Z,97780.78
2023-04-12T10:25:35.017Z,97787.38
2023-04-12T10:28:24.146Z,97790.09
2023-04-12T10:31:39.270Z,97795.94
2023-04-12T10:34:28.915Z,97803.97
2023-04-12T10:37:15.804Z,97804.56
2023-04-12T10:40:03.374Z,97813.63
2023-04-12T10:42:48.897Z,97818.50
2023-04-12T10:45:34.348Z,97822.75
2023-04-12T10:48:39.778Z,97831.34
2023-04-12T10:51:26.910Z,97837.88
2023-04-12T10:54:17.058Z,97839.53
2023-04-12T10:57:04.639Z,97837.25
2023-04-12T10:59:57.408Z,97841.59
2023-04-12T11:03:06.404Z,97854.56
2023-04-12T11:06:20.106Z,97856.88
2023-04-12T11:09:45.678Z,97874.16
2023-04-12T11:12:42.022Z,97864.81
2023-04-12T11:15:28.040Z,97881.53
2023-04-12T11:18:16.389Z,97881.16
2023-04-12T11:21:04.787Z,97886.19
2023-04-12T11:23:51.455Z,97896.38
2023-04-12T11:26:37.907Z,97904.59
2023-04-12T11:29:32.771Z,97903.41
2023-04-12T11:32:19.277Z,97912.50
2023-04-12T11:35:05.108Z,97909.63
2023-04-12T11:37:55.370Z,97921.81
2023-04-12T11:40:42.737Z,97921.88
2023-04-12T11:43:28.405Z,97924.88
2023-04-12T11:46:15.403Z,97932.66
2023-04-12T11:49:01.109Z,97928.94
2023-04-12T11:51:49.598Z,97937.00
2023-04-12T11:54:35.501Z,97947.53
2023-04-12T11:57:21.088Z,97942.75
2023-04-12T12:00:07.420Z,97952.34
2023-04-12T12:03:07.599Z,97951.97
2023-04-12T12:05:54.518Z,97961.00
2023-04-12T12:08:40.605Z,97961.31
2023-04-12T12:11:27.497Z,97963.94
2023-04-12T12:14:12.863Z,97960.91
2023-04-12T12:16:59.496Z,97961.03
2023-04-12T12:19:46.400Z,97960.78
2023-04-12T12:22:31.752Z,97970.78
2023-04-12T12:25:20.512Z,97972.69
2023-04-12T12:28:12.456Z,97976.97
2023-04-12T12:30:58.079Z,97972.53
2023-04-12T12:33:47.068Z,97981.06
2023-04-12T12:36:36.320Z,97985.47
2023-04-12T12:39:22.087Z,97986.63
2023-04-12T12:42:07.347Z,97989.22
2023-04-12T12:44:52.805Z,97990.38
2023-04-12T12:47:52.036Z,97989.91
2023-04-12T12:50:37.865Z,97985.03
2023-04-12T12:53:24.377Z,97999.44
2023-04-12T12:56:11.262Z,98005.50
2023-04-12T12:58:56.706Z,98011.47
2023-04-12T13:01:42.442Z,98022.13
2023-04-12T13:04:28.905Z,98035.63
2023-04-12T13:07:14.652Z,98038.78
2023-04-12T13:10:00.888Z,98063.72
2023-04-12T13:12:46.769Z,98070.03
2023-04-12T13:15:32.527Z,98080.50
2023-04-12T13:18:17.946Z,98084.03
2023-04-12T13:21:03.694Z,98089.84
2023-04-12T13:23:49.312Z,98104.25
2023-04-12T13:26:35.040Z,98115.00
2023-04-12T13:29:20.837Z,98118.00
2023-04-12T13:32:06.798Z,98121.59
2023-04-12T13:34:52.462Z,98113.25
2023-04-12T13:37:37.953Z,98125.28
2023-04-12T13:40:23.547Z,98130.69
2023-04-12T13:43:09.104Z,98136.94
2023-04-12T13:45:54.375Z,98140.44
2023-04-12T13:48:39.761Z,98139.63
2023-04-12T13:51:26.688Z,98138.22
2023-04-12T13:54:12.325Z,98148.59
2023-04-12T13:56:58.580Z,98149.72
2023-04-12T13:59:43.992Z,98159.28
2023-04-12T14:02:31.416Z,98167.38
2023-04-12T14:05:17.145Z,98169.28
2023-04-12T14:08:02.670Z,98173.69
2023-04-12T14:10:48.019Z,98177.88
2023-04-12T14:13:33.459Z,98192.63
2023-04-12T14:16:19.076Z,98189.19
2023-04-12T14:19:04.271Z,98186.53
2023-04-12T14:21:50.740Z,98193.38
2023-04-12T14:24:36.985Z,98198.41
2023-04-12T14:27:22.544Z,98205.06
2023-04-12T14:30:09.052Z,98209.25
2023-04-12T14:32:54.678Z,98205.06
2023-04-12T14:35:39.966Z,98212.66
2023-04-12T14:38:25.445Z,98218.56
2023-04-12T14:41:12.570Z,98216.81
2023-04-12T14:44:00.800Z,98221.75
2023-04-12T14:46:46.260Z,98229.38
2023-04-12T14:49:33.372Z,98231.03
2023-04-12T14:52:19.429Z,98248.13
2023-04-12T14:55:05.986Z,98233.41
2023-04-12T14:57:51.402Z,98265.88
2023-04-12T15:00:36.717Z,98268.94
2023-04-12T15:03:22.469Z,98269.50
2023-04-12T15:06:09.028Z,98283.13
2023-04-12T15:08:55.314Z,98311.44
2023-04-12T15:11:47.107Z,98310.56
2023-04-12T15:14:32.920Z,98310.59
2023-04-12T15:17:18.346Z,98320.13
2023-04-12T15:20:11.611Z,98332.28
2023-04-12T15:22:57.252Z,98341.69
2023-04-12T15:25:42.819Z,98350.41
2023-04-12T15:28:29.077Z,98384.81
2023-04-12T15:31:14.881Z,98359.91
2023-04-12T15:34:00.441Z,98392.69
2023-04-12T15:36:46.300Z,98412.59
2023-04-12T15:39:31.911Z,98429.94
2023-04-12T15:42:17.378Z,98423.97
2023-04-12T15:45:03.147Z,98450.72
2023-04-12T15:47:48.634Z,98455.94
2023-04-12T15:50:34.049Z,98481.91
2023-04-12T15:53:21.459Z,98479.34
2023-04-12T15:56:08.996Z,98488.88
2023-04-12T15:58:57.107Z,98509.63
2023-04-12T16:01:43.574Z,98532.94
2023-04-12T16:04:29.415Z,98540.72
2023-04-12T16:07:15.227Z,98545.00
2023-04-12T16:10:00.712Z,98559.59
2023-04-12T16:12:48.593Z,98572.53
2023-04-12T16:15:34.761Z,98575.06
2023-04-12T16:18:20.328Z,98602.63
2023-04-12T16:21:06.057Z,98599.25
2023-04-12T16:23:51.532Z,98613.00
2023-04-12T16:26:38.599Z,98619.84
2023-04-12T16:29:24.558Z,98637.06
2023-04-12T16:32:12.342Z,98658.59
2023-04-12T16:34:59.120Z,98644.75
2023-04-12T16:37:46.333Z,98661.06
2023-04-12T16:40:31.906Z,98668.84
2023-04-12T16:43:17.512Z,98686.97
2023-04-12T16:46:05.126Z,98680.00
2023-04-12T16:48:50.508Z,98691.22
2023-04-12T16:51:37.518Z,98704.13
2023-04-12T16:54:23.110Z,98724.81
2023-04-12T16:57:08.733Z,98730.81
2023-04-12T16:59:55.690Z,98728.22
2023-04-12T17:02:41.827Z,98742.03
2023-04-12T17:05:27.748Z,98741.97
2023-04-12T17:08:13.642Z,98762.69
2023-04-12T17:10:59.379Z,98765.28
2023-04-12T17:13:46.317Z,98766.13
2023-04-12T17:16:31.889Z,98790.31
2023-04-12T17:19:17.373Z,98799.84
2023-04-12T17:22:02.700Z,98803.38
2023-04-12T17:24:48.515Z,98827.63
2023-04-12T17:27:34.667Z,98817.41
2023-04-12T17:30:20.382Z,98846.81
2023-04-12T17:33:07.727Z,98846.03
2023-04-12T17:35:53.358Z,98841.84
2023-04-12T17:38:38.720Z,98830.63
2023-04-12T17:41:24.134Z,98839.25
2023-04-12T17:44:09.525Z,98845.28
2023-04-12T17:46:54.922Z,98840.94
2023-04-12T17:49:41.302Z,98850.38
2023-04-12T17:52:27.395Z,98844.28
2023-04-12T17:55:13.112Z,98850.25
2023-04-12T17:57:58.539Z,98858.00
2023-04-12T18:00:43.979Z,98859.66
2023-04-12T18:03:29.841Z,98871.72
2023-04-12T18:06:15.583Z,98872.53
2023-04-12T18:09:03.198Z,98881.13
2023-04-12T18:11:48.964Z,98877.59
2023-04-12T18:14:35.068Z,98887.91
2023-04-12T18:17:20.836Z,98893.94
2023-04-12T18:20:11.086Z,98893.09
2023-04-12T18:22:56.796Z,98895.66
2023-04-12T18:25:42.298Z,98914.53
2023-04-12T18:28:31.435Z,98915.38
2023-04-12T18:31:17.172Z,98917.03
2023-04-12T18:34:02.520Z,98933.44
2023-04-12T18:36:47.887Z,98937.63
2023-04-12T18:39:35.661Z,98946.16
2023-04-12T18:42:21.213Z,98951.25
2023-04-12T18:45:07.231Z,98956.38
2023-04-12T18:47:53.084Z,98971.03
2023-04-12T18:50:39.533Z,98977.06
2023-04-12T18:53:25.548Z,99015.16
2023-04-12T18:56:12.614Z,98998.25
2023-04-12T18:58:58.327Z,99000.19
2023-04-12T19:01:46.933Z,99016.63
2023-04-12T19:04:32.272Z,99024.41
2023-04-12T19:07:17.634Z,99026.09
2023-04-12T19:10:04.232Z,99041.66
2023-04-12T19:12:49.953Z,99033.88
2023-04-12T19:15:35.691Z,99040.84
2023-04-12T19:18:22.048Z,99045.22
2023-04-12T19:21:07.647Z,99053.00
2023-04-12T19:23:53.342Z,99051.31
2023-04-12T19:26:45.581Z,99082.34
2023-04-12T19:29:31.117Z,99075.34
2023-04-12T19:32:16.494Z,99057.22
2023-04-12T19:35:02.122Z,99070.19
2023-04-12T19:37:47.722Z,99085.72
2023-04-12T19:40:33.216Z,99083.19
2023-04-12T19:43:18.749Z,99095.31
2023-04-12T19:46:04.575Z,99105.72
2023-04-12T19:48:50.665Z,99116.94
2023-04-12T19:51:37.929Z,99116.97
2023-04-12T19:54:23.951Z,99124.78
2023-04-12T19:57:09.472Z,99142.91
2023-04-12T19:59:55.492Z,99134.25
2023-04-12T20:02:41.530Z,99136.00
2023-04-12T20:05:27.608Z,99141.16
2023-04-12T20:08:15.141Z,99142.94
2023-04-12T20:11:02.056Z,99158.50
2023-04-12T20:13:47.490Z,99157.66
2023-04-12T20:16:34.079Z,99171.44
2023-04-12T20:19:19.780Z,99175.81
2023-04-12T20:22:06.372Z,99191.34
2023-04-12T20:24:54.135Z,99193.97
2023-04-12T20:27:39.899Z,99193.13
2023-04-12T20:30:26.430Z,99201.75
2023-04-12T20:33:12.453Z,99209.50
2023-04-12T20:35:58.217Z,99206.97
2023-04-12T20:38:43.948Z,99218.19
2023-04-12T20:41:29.796Z,99223.38
2023-04-12T20:44:15.116Z,99220.75
2023-04-12T20:47:02.183Z,99213.00
2023-04-12T20:49:47.812Z,99231.13
2023-04-12T20:52:33.104Z,99225.09
2023-04-12T20:55:18.846Z,99220.75
2023-04-12T20:58:05.351Z,99229.41
2023-04-12T21:00:52.382Z,99218.19
2023-04-12T21:03:38.468Z,99225.97
2023-04-12T21:06:25.179Z,99222.53
2023-04-12T21:09:10.886Z,99236.31
2023-04-12T21:11:57.960Z,99248.38
2023-04-12T21:14:45.368Z,99239.72
2023-04-12T21:17:30.743Z,99256.09
2023-04-12T21:20:16.921Z,99257.84
2023-04-12T21:23:04.272Z,99263.91
2023-04-12T21:25:51.366Z,99269.09
2023-04-12T21:28:38.504Z,99271.69
2023-04-12T21:31:24.327Z,99274.28
2023-04-12T21:34:10.241Z,99274.28
2023-04-12T21:36:57.413Z,99295.81
2023-04-12T21:39:43.743Z,99300.97
2023-04-12T21:42:29.778Z,99298.38
2023-04-12T21:45:16.613Z,99315.63
2023-04-12T21:48:02.295Z,99303.53
2023-04-12T21:50:48.406Z,99305.28
2023-04-12T21:53:33.778Z,99310.47
2023-04-12T21:56:18.976Z,99309.63
2023-04-12T21:59:06.531Z,99308.72
2023-04-12T22:01:53.054Z,99305.28
2023-04-12T22:04:40.331Z,99317.34
2023-04-12T22:07:26.829Z,99315.63
2023-04-12T22:10:12.600Z,99320.81
2023-04-12T22:12:58.417Z,99318.25
2023-04-12T22:15:44.421Z,99332.03
2023-04-12T22:18:31.853Z,99338.94
2023-04-12T22:21:17.740Z,99336.34
2023-04-12T22:24:03.142Z,99336.31
2023-04-12T22:26:48.608Z,99364.72
2023-04-12T22:29:34.585Z,99346.66
2023-04-12T22:32:20.182Z,99352.66
2023-04-12T22:35:09.938Z,99356.13
2023-04-12T22:37:55.725Z,99357.84
2023-04-12T22:40:41.051Z,99363.03
2023-04-12T22:43:26.442Z,99356.16
2023-04-12T22:46:18.802Z,99369.94
2023-04-12T22:49:04.858Z,99368.22
2023-04-12T22:51:50.350Z,99385.47
2023-04-12T22:54:35.755Z,99393.25
2023-04-12T22:57:21.131Z,99390.63
2023-04-12T23:00:07.503Z,99387.19
2023-04-12T23:02:53.985Z,99388.91
2023-04-12T23:05:44.774Z,99393.22
2023-04-12T23:08:30.017Z,99399.25
2023-04-12T23:11:15.325Z,99391.50
2023-04-12T23:14:01.739Z,99401.84
2023-04-12T23:16:47.557Z,99405.28
2023-04-12T23:19:33.350Z,99394.97
2023-04-12T23:22:52.555Z,99399.25
2023-04-12T23:25:41.841Z,99412.16
2023-04-12T23:28:28.561Z,99420.78
2023-04-12T23:31:15.210Z,99425.06
2023-04-12T23:34:06.248Z,99419.88
2023-04-12T23:36:52.154Z,99431.94
2023-04-12T23:39:37.650Z,99436.25
2023-04-12T23:42:23.422Z,99435.38
2023-04-12T23:45:10.705Z,99442.28
2023-04-12T23:47:56.544Z,99438.84
2023-04-12T23:50:48.635Z,99433.69
2023-04-12T23:53:33.868Z,99432.84
2023-04-12T23:56:19.216Z,99425.94
2023-04-12T23:59:04.799Z,99436.25
